Latest Weather Observations for Cape Byron

IDN60801

Issued at 7:32 pm EDT Wednesday 10 February 2016 (issued every 30 minutes, with the page automatically refreshed every 10 minutes)

About weather observations | Map of weather stations | Latest weather observations for NSW | Other Formats
Station Details ID: 058216 Name: CAPE BYRON AWS Lat: -28.64 Lon: 153.64 Height: 95.0 m
Data from the previous 72 hours. | See also: Recent months at Cape Byron
Date/Time
EDT
Temp
°C
App
Temp
°C
Dew
Point
Rel
Hum
%
Delta-T
°C
Wind Press
QNH
hPa
Press
MSL
hPa
Rain
since 9 am
mm
Dir
 
Spd
km/h
Gust
km/h
Spd
kts
Gust
kts
10/07:30pm 22.9 20.6 20.2 85 1.7 ESE 32 43 17 23 1014.3 1013.8 4.0
10/07:00pm 23.1 21.2 18.6 76 2.8 SSE 26 43 14 23 1014.1 1013.6 4.0
10/06:30pm 22.9 20.8 19.7 82 2.1 SSE 30 39 16 21 1013.6 1013.1 4.0
10/06:00pm 21.9 19.8 20.9 94 0.7 S 33 41 18 22 1013.4 1012.9 4.0
10/05:30pm 21.6 19.4 20.8 95 0.5 S 33 41 18 22 1013.6 1013.1 2.4
10/05:00pm 21.3 19.2 20.6 96 0.5 SE 32 39 17 21 1013.6 1013.1 2.0
10/04:30pm 21.9 18.6 20.9 94 0.7 ESE 39 48 21 26 1013.1 1012.6 0.4
10/04:23pm 22.5 21.6 21.5 94 0.7 ESE 28 46 15 25 1013.2 1012.7 0.4
10/04:00pm 22.4 22.0 21.6 95 0.5 SE 26 43 14 23 1013.5 1013.0 0.4
10/03:35pm 22.2 20.0 20.7 91 1.0 SE 33 43 18 23 1013.7 1013.2 0.0
10/03:30pm 22.7 20.0 21.2 91 1.0 SE 37 46 20 25 1013.6 1013.1 0.0
10/03:21pm 23.0 19.1 21.1 89 1.2 ESE 43 52 23 28 1013.4 1012.9 0.0
10/03:00pm 24.8 24.4 20.9 79 2.6 SE 24 35 13 19 1013.8 1013.3 0.0
10/02:30pm 24.9 25.0 21.8 83 2.1 SSW 24 33 13 18 1014.0 1013.5 0.0
10/02:00pm 25.3 23.9 21.2 78 2.7 SSW 30 37 16 20 1014.2 1013.7 0.0
10/01:30pm 23.8 20.6 20.3 81 2.3 SSW 37 41 20 22 1014.3 1013.8 0.0
10/01:00pm 24.6 22.6 21.1 81 2.3 S 33 44 18 24 1014.4 1013.9 0.0
10/12:30pm 24.7 23.0 20.6 78 2.7 SSE 30 41 16 22 1014.5 1014.0 0.0
10/12:00pm 24.1 21.5 19.6 76 2.9 S 32 43 17 23 1014.8 1014.3 0.0
10/11:30am 25.1 22.9 19.5 71 3.6 S 30 39 16 21 1014.9 1014.4 0.0
10/11:00am 24.3 23.6 19.6 75 3.0 SSW 22 32 12 17 1015.1 1014.6 0.0
10/10:30am 23.8 24.2 19.9 79 2.5 SW 17 24 9 13 1015.3 1014.8 0.0
10/10:00am 23.1 23.0 19.5 80 2.3 SW 19 24 10 13 1015.3 1014.8 0.0
10/09:30am 23.0 22.5 19.0 78 2.5 SW 20 32 11 17 1015.2 1014.7 0.0
10/09:00am 23.1 23.4 19.5 80 2.3 SW 17 24 9 13 1015.0 1014.5 0.0
10/08:30am 24.1 21.5 17.8 68 4.0 S 28 37 15 20 1014.7 1014.2 0.0
10/08:00am 23.7 20.0 17.0 66 4.1 S 32 39 17 21 1014.5 1014.0 0.0
10/07:30am 23.6 19.2 17.6 69 3.7 S 37 46 20 25 1014.2 1013.7 0.0
10/07:00am 23.5 19.6 17.0 67 4.0 SSE 33 43 18 23 1013.9 1013.4 0.0
10/06:30am 23.5 20.4 17.5 69 3.7 SSE 30 41 16 22 1013.7 1013.2 0.0
10/06:00am 23.4 20.5 16.2 64 4.4 S 26 35 14 19 1013.7 1013.2 0.0
10/05:30am 23.4 19.5 15.5 61 4.8 SSE 30 43 16 23 1013.6 1013.1 0.0
10/05:00am 23.2 20.7 17.0 68 3.8 SSE 26 37 14 20 1013.4 1012.9 0.0
10/04:30am 23.2 19.0 15.8 63 4.5 SE 32 43 17 23 1013.3 1012.8 0.0
10/04:00am 23.2 20.0 17.2 69 3.7 SE 30 41 16 22 1013.5 1013.0 0.0
10/03:30am 23.2 20.4 18.3 74 3.1 SSE 30 44 16 24 1013.7 1013.2 0.0
10/03:00am 23.2 19.6 17.2 69 3.7 SSE 32 43 17 23 1013.8 1013.3 0.0
10/02:30am 23.1 19.8 18.0 73 3.2 SSE 32 44 17 24 1014.1 1013.6 0.0
10/02:00am 23.2 19.9 17.9 72 3.3 SSE 32 44 17 24 1014.6 1014.1 0.0
10/01:30am 23.3 19.6 17.5 70 3.6 SSE 33 44 18 24 1014.9 1014.4 0.0
10/01:00am 23.3 19.5 17.3 69 3.7 SSE 33 46 18 25 1015.1 1014.6 0.0
10/12:30am 23.3 18.7 18.0 72 3.3 S 39 50 21 27 1015.5 1015.0 0.0
10/12:00am 23.3 19.3 18.4 74 3.1 S 37 48 20 26 1016.1 1015.7 0.0
 
Date/Time
EDT
Temp
°C
App
Temp
°C
Dew
Point
Rel
Hum
%
Delta-T
°C
Wind Press
QNH
hPa
Press
MSL
hPa
Rain
since 9 am
mm
Dir
 
Spd
km/h
Gust
km/h
Spd
kts
Gust
kts
09/11:30pm 23.3 19.0 17.7 71 3.5 S 37 48 20 26 1016.6 1016.1 0.0
09/11:00pm 23.4 18.7 17.8 71 3.5 S 39 48 21 26 1016.9 1016.4 0.0
09/10:30pm 23.4 19.2 17.2 68 3.8 SSE 35 48 19 26 1017.3 1016.8 0.0
09/10:00pm 23.5 18.5 17.0 67 4.0 SSE 39 50 21 27 1017.1 1016.6 0.0
09/09:30pm 23.5 19.6 17.9 71 3.5 SSE 35 50 19 27 1017.0 1016.5 0.0
09/09:24pm 23.5 19.6 17.9 71 3.5 SSE 35 54 19 29 1016.9 1016.4 0.0
09/09:00pm 23.5 18.7 17.5 69 3.7 SSE 39 48 21 26 1016.8 1016.3 0.0
09/08:30pm 23.5 19.2 17.9 71 3.5 SSE 37 48 20 26 1016.7 1016.2 0.0
09/08:00pm 23.5 18.5 17.0 67 4.0 S 39 54 21 29 1016.6 1016.1 0.0
09/07:30pm 23.7 18.4 17.2 67 4.0 S 41 50 22 27 1016.5 1016.0 0.0
09/07:00pm 24.1 18.9 17.4 66 4.2 S 41 54 22 29 1016.4 1015.9 0.0
09/06:52pm 24.2 19.1 17.7 67 4.1 S 41 59 22 32 1016.1 1015.7 0.0
09/06:30pm 24.4 18.7 17.1 63 4.5 S 43 54 23 29 1015.9 1015.5 0.0
09/06:00pm 24.5 18.1 17.7 66 4.3 S 48 57 26 31 1015.8 1015.4 0.0
09/05:30pm 24.8 19.4 17.8 65 4.4 S 43 54 23 29 1015.7 1015.3 0.0
09/05:00pm 24.9 19.0 17.1 62 4.8 S 44 56 24 30 1015.6 1015.1 0.0
09/04:30pm 25.0 18.9 17.7 64 4.6 S 46 54 25 29 1015.8 1015.4 0.0
09/04:00pm 24.8 18.9 18.0 66 4.3 S 46 56 25 30 1015.8 1015.4 0.0
09/03:30pm 25.0 20.7 17.7 64 4.6 S 37 48 20 26 1016.1 1015.7 0.0
09/03:00pm 25.3 19.8 17.7 62 4.8 S 43 54 23 29 1016.3 1015.8 0.0
09/02:30pm 25.2 19.6 17.4 62 4.9 S 43 54 23 29 1016.3 1015.8 0.0
09/02:00pm 25.2 20.2 17.9 64 4.6 S 41 52 22 28 1016.5 1016.0 0.0
09/01:30pm 25.3 19.6 16.2 57 5.6 SSE 41 52 22 28 1016.7 1016.2 0.0
09/01:02pm 25.1 20.9 17.1 61 5.0 SSE 35 54 19 29 1016.7 1016.2 0.0
09/01:00pm 25.0 21.0 17.7 64 4.6 SSE 35 48 19 26 1016.7 1016.2 0.0
09/12:30pm 24.9 20.1 16.6 60 5.1 SSE 37 48 20 26 1016.9 1016.4 0.0
09/12:00pm 25.1 21.8 18.3 66 4.3 SSE 33 46 18 25 1017.1 1016.6 0.0
09/11:46am 24.9 20.4 17.4 63 4.7 SE 37 56 20 30 1017.1 1016.6 0.0
09/11:30am 25.1 21.1 18.5 67 4.2 SSE 37 54 20 29 1016.9 1016.4 0.0
09/11:06am 25.0 21.6 17.7 64 4.6 SSE 32 50 17 27 1017.2 1016.7 0.0
09/11:00am 25.2 21.9 18.4 66 4.3 SSE 33 48 18 26 1017.2 1016.7 0.0
09/10:38am 25.2 21.1 18.2 65 4.4 SE 37 56 20 30 1017.1 1016.6 0.0
09/10:30am 25.2 21.6 17.7 63 4.7 SSE 33 46 18 25 1017.3 1016.8 0.0
09/10:00am 24.7 19.9 16.7 61 4.9 SSE 37 50 20 27 1017.3 1016.8 0.0
09/09:30am 24.7 21.1 18.6 69 3.9 SSE 35 48 19 26 1017.0 1016.5 0.0
09/09:00am 24.6 20.9 18.3 68 4.0 SSE 35 46 19 25 1016.9 1016.4 0.0
09/08:30am 24.1 20.4 18.3 70 3.7 SSE 35 50 19 27 1016.7 1016.2 0.0
09/08:00am 24.2 20.5 19.1 73 3.3 SSE 37 48 20 26 1016.1 1015.7 0.0
09/07:30am 23.9 19.0 17.4 67 4.0 SSE 39 52 21 28 1015.9 1015.5 0.0
09/07:00am 23.9 19.3 17.9 69 3.8 S 39 50 21 27 1015.6 1015.1 0.0
09/06:30am 23.4 19.8 19.3 78 2.6 SSE 37 50 20 27 1015.1 1014.6 0.0
09/06:00am 23.4 20.2 18.5 74 3.1 SSE 33 44 18 24 1014.8 1014.3 0.0
09/05:43am 23.4 19.4 18.5 74 3.1 SSE 37 52 20 28 1014.6 1014.1 0.0
09/05:30am 23.6 18.3 17.3 67 3.9 S 41 54 22 29 1014.7 1014.2 0.0
09/05:15am 23.4 19.6 18.1 72 3.3 SSE 35 54 19 29 1014.6 1014.1 0.0
09/05:00am 23.5 20.1 19.8 80 2.4 SSE 37 52 20 28 1014.5 1014.0 0.0
09/04:30am 23.5 20.4 18.8 75 3.0 SSE 33 44 18 24 1014.6 1014.1 0.0
09/04:16am 23.6 20.5 19.7 79 2.5 SE 35 54 19 29 1014.5 1014.0 0.0
09/04:12am 23.6 20.3 19.3 77 2.8 SE 35 54 19 29 1014.3 1013.8 0.0
09/04:00am 23.7 19.4 17.9 70 3.6 S 37 48 20 26 1014.5 1014.0 0.0
09/03:30am 23.1 20.0 19.7 81 2.2 SSE 35 54 19 29 1014.6 1014.1 0.0
09/03:21am 23.3 20.2 19.7 80 2.3 SSE 35 54 19 29 1014.6 1014.1 0.0
09/03:16am 23.5 20.3 19.4 78 2.6 SSE 35 48 19 26 1014.5 1014.0 0.0
09/03:00am 23.5 18.5 17.0 67 4.0 S 39 52 21 28 1014.8 1014.3 0.0
09/02:30am 23.9 17.5 15.9 61 4.9 S 44 54 24 29 1014.9 1014.4 0.0
09/02:00am 23.9 18.3 16.4 63 4.6 S 41 50 22 27 1015.0 1014.5 0.0
09/01:30am 23.8 18.2 17.5 68 3.9 S 43 52 23 28 1015.3 1014.8 0.0
09/01:00am 23.6 16.6 17.3 67 3.9 S 50 59 27 32 1015.6 1015.1 0.0
09/12:30am 23.9 19.1 18.5 72 3.4 SSE 41 54 22 29 1016.1 1015.7 0.0
09/12:00am 24.0 18.8 18.9 73 3.2 S 44 57 24 31 1016.3 1015.8 0.0
 
Date/Time
EDT
Temp
°C
App
Temp
°C
Dew
Point
Rel
Hum
%
Delta-T
°C
Wind Press
QNH
hPa
Press
MSL
hPa
Rain
since 9 am
mm
Dir
 
Spd
km/h
Gust
km/h
Spd
kts
Gust
kts
08/11:30pm 23.9 19.2 19.4 76 2.9 S 43 54 23 29 1016.4 1015.9 0.0
08/11:00pm 24.0 19.0 18.9 73 3.2 S 43 52 23 28 1016.5 1016.0 0.0
08/10:30pm 23.9 19.4 19.8 78 2.6 S 43 56 23 30 1016.7 1016.2 0.0
08/10:00pm 24.0 18.9 19.9 78 2.7 S 46 57 25 31 1016.5 1016.0 0.0
08/09:30pm 24.1 19.3 20.4 80 2.4 S 46 59 25 32 1016.4 1015.9 0.0
08/09:00pm 24.3 20.3 20.2 78 2.7 S 41 56 22 30 1015.9 1015.5 0.0
08/08:30pm 24.0 20.1 19.5 76 2.9 S 39 46 21 25 1015.6 1015.1 0.0
08/08:00pm 24.1 18.7 19.2 74 3.1 S 46 54 25 29 1015.3 1014.8 0.0
08/07:30pm 24.3 20.3 20.2 78 2.7 S 41 46 22 25 1014.9 1014.4 0.0
08/07:00pm 24.6 20.4 19.7 74 3.2 S 41 50 22 27 1014.6 1014.1 0.0
08/06:30pm 24.9 20.5 20.2 75 3.1 S 43 56 23 30 1014.3 1013.8 0.0
08/06:00pm 25.0 19.5 19.8 73 3.4 S 48 56 26 30 1014.2 1013.7 0.0
08/05:30pm 25.2 20.3 20.2 74 3.3 SSW 46 54 25 29 1014.3 1013.8 0.0
08/05:00pm 25.3 21.3 20.1 73 3.4 S 41 50 22 27 1014.4 1013.9 0.0
08/04:30pm 24.9 20.2 19.9 74 3.2 S 44 52 24 28 1014.5 1014.0 0.0
08/04:00pm 25.3 21.0 20.3 74 3.3 S 43 50 23 27 1014.7 1014.2 0.0
08/03:30pm 25.1 20.4 19.9 73 3.4 S 44 50 24 27 1014.7 1014.2 0.0
08/03:00pm 24.9 21.0 21.2 80 2.4 SSW 43 50 23 27 1014.8 1014.3 0.0
08/02:30pm 25.1 22.1 22.2 84 1.9 SSW 41 50 22 27 1015.1 1014.6 0.0
08/02:00pm 25.1 21.6 21.8 82 2.2 SSW 43 50 23 27 1015.2 1014.7 0.0
08/01:30pm 25.0 21.3 20.7 77 2.8 SSW 41 50 22 27 1015.5 1015.0 0.0
08/01:00pm 24.9 21.0 21.2 80 2.4 SSW 43 50 23 27 1015.6 1015.1 0.0
08/12:30pm 24.8 21.9 20.9 79 2.6 SSW 37 48 20 26 1016.0 1015.6 0.0
08/12:00pm 24.7 21.6 21.2 81 2.3 SSW 39 46 21 25 1016.3 1015.8 0.0
08/11:30am 24.5 21.7 21.0 81 2.3 SSW 37 46 20 25 1016.5 1016.0 0.0
08/11:00am 23.9 20.2 20.0 79 2.5 SSW 39 46 21 25 1016.6 1016.1 0.0
08/10:30am 23.9 22.0 20.2 80 2.4 SSW 30 39 16 21 1016.7 1016.2 0.0
08/10:00am 22.9 23.0 19.9 83 1.9 SW 19 28 10 15 1016.7 1016.2 0.0
08/09:30am 21.5 19.8 18.9 85 1.6 SSW 26 35 14 19 1016.5 1016.0 0.0
08/09:00am 22.0 20.0 18.4 80 2.3 SW 26 35 14 19 1016.1 1015.7 5.4
08/08:30am 21.2 19.6 18.4 84 1.8 SW 24 35 13 19 1015.9 1015.5 5.4
08/08:00am 19.9 18.0 17.7 87 1.4 SW 24 32 13 17 1015.8 1015.4 5.4
08/07:30am 19.6 17.3 17.6 88 1.2 WSW 26 39 14 21 1015.5 1015.0 5.4
08/07:00am 19.1 15.6 17.4 90 1.0 SW 32 41 17 22 1015.2 1014.7 5.4
08/06:30am 18.9 15.8 17.4 91 0.9 SW 30 35 16 19 1015.0 1014.5 5.4
08/06:00am 18.9 15.5 17.6 92 0.8 SW 32 37 17 20 1014.9 1014.4 5.4
08/05:30am 19.1 15.7 17.6 91 0.9 SW 32 37 17 20 1014.9 1014.4 5.4
08/05:00am 19.3 15.9 17.6 90 1.0 WSW 32 35 17 19 1014.9 1014.4 5.4
08/04:30am 19.5 16.5 17.8 90 1.0 SW 30 37 16 20 1014.7 1014.2 5.4
08/04:00am 19.7 17.5 17.8 89 1.2 WSW 26 33 14 18 1014.9 1014.4 5.4
08/03:30am 20.1 18.3 17.9 87 1.4 SW 24 28 13 15 1014.9 1014.4 5.4
08/03:00am 20.3 18.5 17.9 86 1.5 WSW 24 28 13 15 1015.2 1014.7 5.4
08/02:30am 21.3 20.1 17.1 77 2.6 SW 19 24 10 13 1015.5 1015.0 5.4
08/02:00am 23.3 19.9 16.8 67 4.0 SSE 30 41 16 22 1015.6 1015.1 5.4
08/01:30am 23.1 19.2 16.4 66 4.1 SSE 32 44 17 24 1016.0 1015.6 5.4
08/01:00am 23.3 20.1 17.3 69 3.7 SSE 30 37 16 20 1016.3 1015.8 5.4
08/12:30am 23.2 20.2 16.7 67 4.0 SSE 28 39 15 21 1016.5 1016.0 5.4
08/12:00am 23.2 19.2 16.7 67 4.0 SSE 33 43 18 23 1016.6 1016.1 5.4
 
Date/Time
EDT
Temp
°C
App
Temp
°C
Dew
Point
Rel
Hum
%
Delta-T
°C
Wind Press
QNH
hPa
Press
MSL
hPa
Rain
since 9 am
mm
Dir
 
Spd
km/h
Gust
km/h
Spd
kts
Gust
kts
07/11:30pm 23.3 19.1 17.1 68 3.8 S 35 44 19 24 1016.5 1016.0 5.4
07/11:00pm 23.4 19.9 17.4 69 3.7 S 32 41 17 22 1016.5 1016.0 5.4
07/10:30pm 23.5 19.9 17.3 68 3.9 S 32 41 17 22 1016.5 1016.0 5.4
07/10:00pm 23.4 20.3 17.6 70 3.6 SSE 30 43 16 23 1016.4 1015.9 5.4
07/09:30pm 23.4 20.2 17.2 68 3.8 SSE 30 39 16 21 1016.3 1015.8 5.4
07/09:00pm 23.5 19.9 17.3 68 3.8 SSE 32 43 17 23 1016.0 1015.6 5.4
07/08:30pm 23.6 19.8 17.3 67 3.9 S 33 43 18 23 1015.6 1015.1 5.4
07/08:00pm 23.6 19.7 16.9 66 4.1 SSE 33 44 18 24 1015.5 1015.0 5.4

Other Formats:

Comma delimited format used in spreadsheet applications
http://www.bom.gov.au/fwo/IDN60801/IDN60801.94599.axf

JavaScript Object Notation format (JSON) in row-major order
http://www.bom.gov.au/fwo/IDN60801/IDN60801.94599.json